| time (UTC) | temp C | wind direction | speed KPH | gust KPH | rain 1hr cm | rain 24hr cm | rain mn cm | humidity % | barometer mb |
| 20260507091802 | 12 | 336 | 3.2 | 3.2 | 0.00 | 0.03 | 0.03 | 96 | 1013.4 |
| 20260507091259 | 12 | 7 | 3.2 | 4.8 | 0.00 | 0.03 | 0.03 | 95 | 1013.5 |
| 20260507090759 | 12 | 258 | 0.0 | 1.6 | 0.00 | 0.03 | 0.03 | 95 | 1013.7 |
| 20260507090256 | 13 | 334 | 3.2 | 4.8 | 0.00 | 0.03 | 0.03 | 95 | 1013.6 |
| 20260507085753 | 13 | 142 | 1.6 | 4.8 | 0.00 | 0.03 | 0.03 | 95 | 1013.5 |
| 20260507085250 | 13 | 28 | 1.6 | 9.7 | 0.00 | 0.03 | 0.03 | 96 | 1013.5 |
| 20260507084747 | 13 | 0 | 0.0 | 0.0 | 0.00 | 0.03 | 0.03 | 96 | 1013.6 |
| 20260507084243 | 13 | 253 | 0.0 | 0.0 | 0.00 | 0.03 | 0.03 | 96 | 1013.7 |
| 20260507083741 | 13 | 304 | 1.6 | 3.2 | 0.00 | 0.03 | 0.03 | 95 | 1013.7 |
| 20260507083237 | 13 | 319 | 0.0 | 1.6 | 0.00 | 0.03 | 0.03 | 95 | 1013.3 |
| 20260507082733 | 13 | 270 | 0.0 | 0.0 | 0.00 | 0.03 | 0.03 | 95 | 1013.5 |
| 20260507082229 | 13 | 322 | 3.2 | 3.2 | 0.00 | 0.03 | 0.03 | 95 | 1013.5 |
| 20260507081726 | 13 | 233 | 0.0 | 3.2 | 0.00 | 0.03 | 0.03 | 95 | 1013.3 |
| 20260507081222 | 13 | 325 | 3.2 | 4.8 | 0.00 | 0.03 | 0.03 | 95 | 1013.2 |
| 20260507080719 | 13 | 351 | 0.0 | 4.8 | 0.00 | 0.03 | 0.03 | 96 | 1012.8 |
| 20260507080215 | 13 | 319 | 0.0 | 1.6 | 0.00 | 0.03 | 0.03 | 97 | 1013.0 |
| 20260507075711 | 13 | 1 | 3.2 | 3.2 | 0.00 | 0.03 | 0.03 | 97 | 1012.9 |
| 20260507075207 | 13 | 308 | 0.0 | 1.6 | 0.00 | 0.03 | 0.03 | 97 | 1012.9 |
| 20260507074703 | 13 | 325 | 0.0 | 4.8 | 0.00 | 0.03 | 0.03 | 98 | 1012.8 |
| 20260507074202 | 13 | 293 | 3.2 | 4.8 | 0.00 | 0.03 | 0.03 | 98 | 1012.6 |
| 20260507073658 | 13 | 8 | 0.0 | 0.0 | 0.00 | 0.03 | 0.03 | 98 | 1012.4 |
| 20260507073154 | 13 | 252 | 0.0 | 0.0 | 0.00 | 0.03 | 0.03 | 98 | 1012.4 |
| 20260507072653 | 13 | 309 | 0.0 | 0.0 | 0.00 | 0.03 | 0.03 | 99 | 1012.8 |
| 20260507072149 | 13 | 314 | 1.6 | 4.8 | 0.00 | 0.03 | 0.03 | 99 | 1012.9 |
| 20260507071647 | 13 | 320 | 0.0 | 3.2 | 0.00 | 0.03 | 0.03 | 99 | 1013.0 |
| 20260507071143 | 13 | 355 | 1.6 | 3.2 | 0.00 | 0.03 | 0.03 | 99 | 1012.9 |
| 20260507070640 | 14 | 3 | 0.0 | 4.8 | 0.00 | 0.03 | 0.03 | 99 | 1013.1 |
| 20260507070137 | 14 | 271 | 1.6 | 9.7 | 0.00 | 0.03 | 0.03 | 99 | 1012.9 |
| 20260507065633 | 14 | 31 | 1.6 | 4.8 | 0.00 | 0.03 | 0.03 | 99 | 1012.6 |
| 20260507065130 | 14 | 289 | 0.0 | 0.0 | 0.00 | 0.03 | 0.03 | 99 | 1012.5 |
| 20260507064628 | 14 | 258 | 0.0 | 3.2 | 0.00 | 0.03 | 0.03 | 99 | 1012.4 |
| 20260507064127 | 14 | 1 | 0.0 | 0.0 | 0.00 | 0.03 | 0.03 | 99 | 1012.0 |
| 20260507063624 | 14 | 309 | 1.6 | 1.6 | 0.00 | 0.03 | 0.03 | 99 | 1011.9 |
| 20260507063121 | 14 | 291 | 0.0 | 0.0 | 0.00 | 0.03 | 0.03 | 99 | 1012.0 |
| 20260507062617 | 14 | 290 | 0.0 | 0.0 | 0.00 | 0.03 | 0.03 | 99 | 1011.6 |
| 20260507062115 | 14 | 303 | 0.0 | 0.0 | 0.00 | 0.03 | 0.03 | 99 | 1011.3 |
| 20260507061613 | 15 | 308 | 0.0 | 0.0 | 0.00 | 0.03 | 0.03 | 99 | 1011.5 |
| 20260507061111 | 15 | 278 | 0.0 | 0.0 | 0.00 | 0.03 | 0.03 | 99 | 1011.2 |
| 20260507060609 | 15 | 2 | 1.6 | 3.2 | 0.00 | 0.03 | 0.03 | 99 | 1011.4 |
| 20260507060104 | 15 | 351 | 0.0 | 0.0 | 0.00 | 0.03 | 0.03 | 99 | 1011.5 |
| 20260507055600 | 15 | 321 | 1.6 | 3.2 | 0.00 | 0.03 | 0.03 | 99 | 1011.6 |
| 20260507055056 | 15 | 7 | 1.6 | 4.8 | 0.00 | 0.03 | 0.03 | 98 | 1012.1 |
| 20260507054552 | 15 | 22 | 3.2 | 4.8 | 0.00 | 0.03 | 0.03 | 98 | 1012.2 |
| 20260507054049 | 15 | 135 | 1.6 | 3.2 | 0.00 | 0.03 | 0.03 | 98 | 1012.1 |
| 20260507053547 | 15 | 335 | 0.0 | 3.2 | 0.00 | 0.03 | 0.03 | 98 | 1012.1 |
| 20260507053046 | 15 | 256 | 0.0 | 0.0 | 0.00 | 0.03 | 0.03 | 97 | 1012.4 |
| 20260507052543 | 15 | 315 | 0.0 | 3.2 | 0.00 | 0.03 | 0.03 | 96 | 1012.0 |
| 20260507052040 | 15 | 339 | 1.6 | 4.8 | 0.00 | 0.03 | 0.03 | 96 | 1012.0 |
| 20260507051537 | 16 | 330 | 4.8 | 4.8 | 0.13 | 0.03 | 0.03 | 95 | 1012.2 |
| 20260507051034 | 16 | 332 | 1.6 | 3.2 | 0.13 | 0.03 | 0.03 | 95 | 1012.6 |
| 20260507050530 | 16 | 30 | 4.8 | 4.8 | 0.00 | 0.00 | 0.00 | 94 | 1012.7 |
| 20260507050027 | 17 | 342 | 1.6 | 4.8 | 0.00 | 0.00 | 0.00 | 93 | 1012.5 |
| 20260507045524 | 17 | 267 | 1.6 | 4.8 | 0.00 | 0.00 | 0.00 | 93 | 1012.4 |
| 20260507045021 | 17 | 11 | 1.6 | 3.2 | 0.00 | 0.00 | 0.00 | 93 | 1012.2 |
| 20260507044518 | 17 | 349 | 4.8 | 6.4 | 0.00 | 0.00 | 0.00 | 92 | 1012.3 |
| 20260507044014 | 17 | 0 | 0.0 | 3.2 | 0.00 | 0.00 | 0.00 | 93 | 1012.1 |
| 20260507043510 | 18 | 253 | 0.0 | 1.6 | 0.00 | 0.00 | 0.00 | 93 | 1011.9 |
| 20260507043008 | 17 | 0 | 1.6 | 11.3 | 0.00 | 0.00 | 0.00 | 94 | 1012.1 |
| 20260507042504 | 17 | 315 | 0.0 | 0.0 | 0.00 | 0.00 | 0.00 | 97 | 1012.3 |
| 20260507041959 | 17 | 318 | 0.0 | 0.0 | 0.00 | 0.00 | 0.00 | 97 | 1012.0 |
| 20260507041456 | 17 | 314 | 0.0 | 0.0 | 0.00 | 0.00 | 0.00 | 98 | 1012.0 |
| 20260507040953 | 17 | 314 | 0.0 | 0.0 | 0.00 | 0.00 | 0.00 | 98 | 1011.8 |
| 20260507040449 | 17 | 314 | 0.0 | 0.0 | 0.00 | 0.00 | 0.00 | 98 | 1011.9 |
| 20260507035945 | 17 | 314 | 0.0 | 0.0 | 0.00 | 0.13 | 0.13 | 97 | 1011.8 |
| 20260507035442 | 17 | 315 | 0.0 | 0.0 | 0.00 | 0.13 | 0.13 | 97 | 1011.6 |
| 20260507034939 | 17 | 269 | 0.0 | 0.0 | 0.00 | 0.13 | 0.13 | 97 | 1011.7 |
| 20260507034435 | 17 | 250 | 0.0 | 0.0 | 0.00 | 0.13 | 0.13 | 97 | 1011.7 |
| 20260507033934 | 17 | 249 | 0.0 | 0.0 | 0.00 | 0.13 | 0.13 | 97 | 1011.9 |
| 20260507033431 | 17 | 314 | 0.0 | 0.0 | 0.00 | 0.13 | 0.13 | 98 | 1011.8 |
| 20260507032928 | 17 | 273 | 0.0 | 0.0 | 0.00 | 0.13 | 0.13 | 98 | 1012.0 |
| 20260507032425 | 17 | 273 | 0.0 | 0.0 | 0.00 | 0.13 | 0.13 | 98 | 1012.0 |
| 20260507031921 | 17 | 273 | 0.0 | 0.0 | 0.00 | 0.13 | 0.13 | 97 | 1011.9 |
| 20260507031418 | 17 | 273 | 0.0 | 0.0 | 0.00 | 0.13 | 0.13 | 97 | 1012.0 |
| 20260507030914 | 17 | 285 | 0.0 | 0.0 | 0.00 | 0.13 | 0.13 | 97 | 1011.5 |
| 20260507030412 | 17 | 312 | 0.0 | 0.0 | 0.00 | 0.13 | 0.13 | 97 | 1011.5 |
| 20260507025909 | 17 | 312 | 0.0 | 0.0 | 0.00 | 0.13 | 0.13 | 96 | 1011.6 |
| 20260507025406 | 17 | 313 | 0.0 | 0.0 | 0.00 | 0.13 | 0.13 | 96 | 1011.7 |
| 20260507024904 | 17 | 313 | 0.0 | 0.0 | 0.00 | 0.13 | 0.13 | 95 | 1011.3 |
| 20260507024401 | 17 | 313 | 0.0 | 0.0 | 0.00 | 0.13 | 0.13 | 95 | 1011.1 |
| 20260507023857 | 17 | 313 | 0.0 | 0.0 | 0.00 | 0.13 | 0.13 | 95 | 1011.2 |
| 20260507023353 | 17 | 315 | 0.0 | 0.0 | 0.00 | 0.13 | 0.13 | 95 | 1011.3 |
| 20260507022851 | 18 | 284 | 0.0 | 0.0 | 0.00 | 0.13 | 0.13 | 95 | 1011.2 |
| 20260507022347 | 18 | 284 | 0.0 | 0.0 | 0.00 | 0.13 | 0.13 | 94 | 1011.4 |
| 20260507021843 | 18 | 313 | 0.0 | 0.0 | 0.00 | 0.13 | 0.13 | 94 | 1011.4 |
| 20260507021338 | 18 | 283 | 0.0 | 0.0 | 0.00 | 0.13 | 0.13 | 94 | 1011.4 |
| 20260507020837 | 18 | 252 | 0.0 | 0.0 | 0.00 | 0.13 | 0.13 | 95 | 1011.5 |
| 20260507020333 | 18 | 252 | 0.0 | 0.0 | 0.00 | 0.13 | 0.13 | 95 | 1011.8 |
| 20260507015830 | 18 | 252 | 0.0 | 0.0 | 0.00 | 0.13 | 0.13 | 95 | 1011.8 |
| 20260507015328 | 18 | 254 | 0.0 | 0.0 | 0.00 | 0.13 | 0.13 | 95 | 1011.7 |
| 20260507014820 | 18 | 255 | 0.0 | 0.0 | 0.00 | 0.13 | 0.13 | 95 | 1011.9 |
| 20260507014316 | 18 | 255 | 0.0 | 0.0 | 0.00 | 0.13 | 0.13 | 94 | 1012.0 |
| 20260507013812 | 18 | 253 | 0.0 | 0.0 | 0.00 | 0.13 | 0.13 | 93 | 1011.7 |
| 20260507013309 | 18 | 272 | 0.0 | 0.0 | 0.00 | 0.13 | 0.13 | 93 | 1011.7 |
| 20260507012806 | 18 | 288 | 0.0 | 0.0 | 0.00 | 0.13 | 0.13 | 93 | 1011.8 |
| 20260507012305 | 18 | 288 | 0.0 | 0.0 | 0.00 | 0.13 | 0.13 | 93 | 1011.6 |
| 20260507011800 | 18 | 252 | 0.0 | 0.0 | 0.00 | 0.13 | 0.13 | 92 | 1011.6 |
| 20260507011256 | 18 | 278 | 0.0 | 0.0 | 0.00 | 0.13 | 0.13 | 92 | 1011.6 |
| 20260507010755 | 18 | 254 | 0.0 | 0.0 | 0.00 | 0.13 | 0.13 | 91 | 1011.6 |
| 20260507010252 | 18 | 249 | 0.0 | 0.0 | 0.00 | 0.13 | 0.13 | 91 | 1011.6 |
| 20260507005749 | 18 | 290 | 0.0 | 0.0 | 0.00 | 0.13 | 0.13 | 91 | 1011.5 |
| 20260507005246 | 18 | 275 | 0.0 | 1.6 | 0.00 | 0.13 | 0.13 | 92 | 1011.5 |
| 20260507005054 | 18 | 255 | 0.0 | 3.2 | 0.00 | 0.00 | 0.00 | 92 | 1015.6 |
| 20260507004742 | 18 | 270 | 0.0 | 0.0 | 0.00 | 0.13 | 0.13 | 93 | 1011.5 |
| 20260507004240 | 18 | 268 | 0.0 | 0.0 | 0.00 | 0.13 | 0.13 | 93 | 1011.5 |
| 20260507004031 | 18 | 311 | 0.0 | 3.2 | 0.00 | 0.00 | 0.00 | 93 | 1015.6 |
| 20260507003736 | 18 | 343 | 1.6 | 3.2 | 0.00 | 0.13 | 0.13 | 94 | 1011.4 |
| 20260507003231 | 18 | 250 | 0.0 | 0.0 | 0.00 | 0.13 | 0.13 | 93 | 1011.3 |
| 20260507003029 | 18 | 0.0 | 0.0 | 0.00 | 0.00 | 0.00 | 93 | 1015.5 | |
| 20260507002728 | 18 | 275 | 0.0 | 0.0 | 0.00 | 0.13 | 0.13 | 93 | 1011.4 |
| 20260507002224 | 18 | 260 | 0.0 | 0.0 | 0.00 | 0.13 | 0.13 | 93 | 1011.2 |
| 20260507002027 | 18 | 0.0 | 0.0 | 0.00 | 0.00 | 0.00 | 92 | 1015.5 | |
| 20260507001721 | 18 | 267 | 0.0 | 0.0 | 0.00 | 0.13 | 0.13 | 93 | 1011.3 |
| 20260507001218 | 18 | 255 | 0.0 | 0.0 | 0.00 | 0.13 | 0.13 | 92 | 1011.7 |
| 20260507001025 | 18 | 0.0 | 0.0 | 0.00 | 0.00 | 0.00 | 91 | 1015.4 | |
| 20260507000714 | 18 | 254 | 0.0 | 0.0 | 0.00 | 0.13 | 0.13 | 91 | 1011.2 |
| 20260507000212 | 19 | 262 | 0.0 | 0.0 | 0.00 | 0.13 | 0.13 | 90 | 1011.2 |
| 20260507000023 | 19 | 0.0 | 0.0 | 0.00 | 0.00 | 0.00 | 89 | 1015.4 | |
| 20260506235707 | 19 | 264 | 0.0 | 0.0 | 0.00 | 0.13 | 0.13 | 89 | 1011.2 |
| 20260506235202 | 20 | 293 | 0.0 | 0.0 | 0.00 | 0.13 | 0.13 | 88 | 1011.2 |
| 20260506235020 | 20 | 264 | 0.0 | 1.6 | 0.00 | 0.00 | 0.00 | 87 | 1015.2 |
| 20260506234659 | 20 | 252 | 0.0 | 1.6 | 0.00 | 0.13 | 0.13 | 87 | 1011.1 |
| 20260506234156 | 20 | 228 | 0.0 | 0.0 | 0.00 | 0.13 | 0.13 | 86 | 1010.9 |
| 20260506234018 | 20 | 278 | 1.6 | 4.8 | 0.00 | 0.00 | 0.00 | 86 | 1015.1 |
| 20260506233654 | 20 | 242 | 3.2 | 6.4 | 0.00 | 0.13 | 0.13 | 86 | 1011.0 |
| 20260506233151 | 20 | 254 | 1.6 | 3.2 | 0.00 | 0.13 | 0.13 | 86 | 1011.1 |
| 20260506233055 | 20 | 247 | 1.6 | 3.2 | 0.00 | 0.00 | 0.00 | 86 | 1015.3 |
| 20260506232647 | 20 | 275 | 4.8 | 4.8 | 0.00 | 0.13 | 0.13 | 85 | 1011.0 |
| 20260506232142 | 20 | 244 | 0.0 | 3.2 | 0.00 | 0.13 | 0.13 | 85 | 1011.0 |
| 20260506232047 | 20 | 280 | 4.8 | 9.7 | 0.00 | 0.00 | 0.00 | 85 | 1015.2 |
| 20260506231640 | 20 | 266 | 1.6 | 4.8 | 0.00 | 0.13 | 0.13 | 86 | 1011.0 |
| 20260506231138 | 20 | 243 | 1.6 | 3.2 | 0.00 | 0.13 | 0.13 | 85 | 1010.9 |
| 20260506231038 | 20 | 272 | 3.2 | 6.4 | 0.00 | 0.00 | 0.00 | 85 | 1015.0 |
| 20260506230635 | 20 | 233 | 1.6 | 4.8 | 0.00 | 0.13 | 0.13 | 85 | 1010.9 |
| 20260506230132 | 20 | 242 | 0.0 | 14.5 | 0.00 | 0.13 | 0.13 | 85 | 1010.8 |
| 20260506230052 | 20 | 265 | 1.6 | 4.8 | 0.00 | 0.00 | 0.00 | 85 | 1015.0 |
| 20260506225628 | 20 | 235 | 0.0 | 3.2 | 0.00 | 0.13 | 0.13 | 84 | 1010.9 |
| 20260506225125 | 20 | 239 | 1.6 | 3.2 | 0.00 | 0.13 | 0.13 | 84 | 1010.9 |
| 20260506225023 | 20 | 263 | 1.6 | 6.4 | 0.00 | 0.00 | 0.00 | 84 | 1015.0 |
| 20260506224621 | 20 | 252 | 0.0 | 1.6 | 0.00 | 0.13 | 0.13 | 84 | 1010.6 |
| 20260506224118 | 20 | 253 | 1.6 | 9.7 | 0.00 | 0.13 | 0.13 | 84 | 1011.0 |
| 20260506224056 | 20 | 261 | 4.8 | 12.9 | 0.00 | 0.00 | 0.00 | 84 | 1015.0 |
| 20260506223614 | 20 | 252 | 3.2 | 4.8 | 0.00 | 0.13 | 0.13 | 84 | 1010.6 |
| 20260506223110 | 21 | 296 | 1.6 | 11.3 | 0.00 | 0.13 | 0.13 | 84 | 1010.7 |
| 20260506223051 | 21 | 273 | 4.8 | 11.3 | 0.00 | 0.00 | 0.00 | 83 | 1014.9 |
| 20260506222607 | 21 | 265 | 4.8 | 11.3 | 0.00 | 0.13 | 0.13 | 83 | 1010.6 |
| 20260506222104 | 21 | 260 | 6.4 | 14.5 | 0.00 | 0.13 | 0.13 | 83 | 1010.7 |
| 20260506222042 | 21 | 263 | 3.2 | 9.7 | 0.00 | 0.00 | 0.00 | 83 | 1014.8 |
| 20260506221602 | 21 | 243 | 3.2 | 4.8 | 0.00 | 0.13 | 0.13 | 84 | 1010.6 |
| 20260506221059 | 20 | 267 | 0.0 | 4.8 | 0.00 | 0.13 | 0.13 | 84 | 1010.9 |
| 20260506221035 | 20 | 273 | 3.2 | 9.7 | 0.00 | 0.00 | 0.00 | 84 | 1015.0 |
| 20260506220555 | 20 | 262 | 6.4 | 6.4 | 0.00 | 0.13 | 0.13 | 83 | 1010.8 |
| 20260506220051 | 20 | 275 | 6.4 | 11.3 | 0.00 | 0.13 | 0.13 | 83 | 1010.7 |
| 20260506220026 | 21 | 261 | 8.0 | 17.7 | 0.00 | 0.00 | 0.00 | 83 | 1015.0 |
| 20260506215548 | 21 | 293 | 4.8 | 9.7 | 0.00 | 0.13 | 0.13 | 83 | 1010.8 |
| 20260506215043 | 21 | 271 | 3.2 | 12.9 | 0.00 | 0.13 | 0.13 | 83 | 1011.0 |
| 20260506215019 | 21 | 269 | 6.4 | 14.5 | 0.00 | 0.00 | 0.00 | 83 | 1015.3 |
| 20260506214540 | 21 | 268 | 6.4 | 9.7 | 0.00 | 0.13 | 0.13 | 83 | 1011.1 |
| 20260506214117 | 20 | 272 | 4.8 | 12.9 | 0.00 | 0.00 | 0.00 | 83 | 1015.1 |
| 20260506214038 | 21 | 269 | 4.8 | 9.7 | 0.00 | 0.13 | 0.13 | 83 | 1010.9 |
| 20260506213536 | 20 | 281 | 4.8 | 9.7 | 0.00 | 0.13 | 0.13 | 83 | 1010.9 |
| 20260506213049 | 20 | 272 | 4.8 | 12.9 | 0.00 | 0.00 | 0.00 | 83 | 1015.1 |
| 20260506213033 | 20 | 269 | 4.8 | 6.4 | 0.00 | 0.13 | 0.13 | 83 | 1010.8 |
| 20260506212529 | 20 | 255 | 6.4 | 16.1 | 0.00 | 0.13 | 0.13 | 84 | 1010.8 |
| 20260506212036 | 20 | 256 | 6.4 | 12.9 | 0.00 | 0.00 | 0.00 | 84 | 1015.2 |
| 20260506212024 | 20 | 275 | 3.2 | 12.9 | 0.00 | 0.13 | 0.13 | 84 | 1010.9 |
| 20260506211520 | 20 | 264 | 1.6 | 9.7 | 0.00 | 0.13 | 0.13 | 83 | 1011.1 |
| 20260506211029 | 20 | 271 | 6.4 | 14.5 | 0.00 | 0.00 | 0.00 | 83 | 1015.1 |
| 20260506211018 | 20 | 312 | 4.8 | 9.7 | 0.00 | 0.13 | 0.13 | 83 | 1010.9 |
| 20260506210514 | 20 | 277 | 6.4 | 12.9 | 0.00 | 0.13 | 0.13 | 83 | 1010.9 |
| 20260506210016 | 20 | 264 | 3.2 | 9.7 | 0.00 | 0.00 | 0.00 | 84 | 1015.0 |
| 20260506210011 | 20 | 295 | 1.6 | 3.2 | 0.00 | 0.13 | 0.13 | 84 | 1010.8 |
| 20260506205508 | 20 | 262 | 3.2 | 11.3 | 0.00 | 0.13 | 0.13 | 85 | 1010.8 |
| 20260506205050 | 20 | 274 | 6.4 | 14.5 | 0.00 | 0.00 | 0.00 | 84 | 1014.9 |
| 20260506205003 | 20 | 266 | 4.8 | 9.7 | 0.00 | 0.13 | 0.13 | 85 | 1010.6 |
| 20260506204501 | 20 | 302 | 6.4 | 14.5 | 0.00 | 0.13 | 0.13 | 84 | 1010.7 |
| 20260506204041 | 20 | 300 | 4.8 | 11.3 | 0.00 | 0.00 | 0.00 | 84 | 1014.9 |
| 20260506203958 | 20 | 255 | 8.0 | 12.9 | 0.00 | 0.13 | 0.13 | 84 | 1010.8 |
| 20260506203456 | 20 | 293 | 4.8 | 9.7 | 0.00 | 0.13 | 0.13 | 85 | 1010.6 |
| 20260506203057 | 20 | 263 | 6.4 | 11.3 | 0.00 | 0.00 | 0.00 | 85 | 1015.1 |
| 20260506202952 | 20 | 271 | 6.4 | 11.3 | 0.00 | 0.13 | 0.13 | 85 | 1011.0 |
| 20260506202450 | 20 | 245 | 3.2 | 9.7 | 0.00 | 0.13 | 0.13 | 85 | 1011.1 |
| 20260506202032 | 19 | 257 | 6.4 | 17.7 | 0.00 | 0.00 | 0.00 | 86 | 1014.8 |
| 20260506201946 | 19 | 228 | 4.8 | 4.8 | 0.00 | 0.13 | 0.13 | 85 | 1010.7 |
| 20260506201444 | 19 | 283 | 9.7 | 12.9 | 0.00 | 0.13 | 0.13 | 86 | 1010.8 |
| 20260506201026 | 19 | 282 | 4.8 | 12.9 | 0.00 | 0.00 | 0.00 | 87 | 1015.0 |
| 20260506200940 | 19 | 249 | 6.4 | 6.4 | 0.00 | 0.13 | 0.13 | 87 | 1010.9 |
| 20260506200436 | 19 | 269 | 4.8 | 4.8 | 0.00 | 0.13 | 0.13 | 87 | 1011.0 |
| 20260506200023 | 19 | 263 | 4.8 | 11.3 | 0.00 | 0.00 | 0.00 | 87 | 1015.4 |
| 20260506195933 | 19 | 228 | 3.2 | 11.3 | 0.00 | 0.13 | 0.13 | 87 | 1011.1 |
| 20260506195430 | 19 | 236 | 3.2 | 6.4 | 0.00 | 0.13 | 0.13 | 87 | 1011.1 |
| 20260506195052 | 19 | 261 | 6.4 | 20.9 | 0.00 | 0.00 | 0.00 | 87 | 1015.0 |
| 20260506194926 | 19 | 265 | 8.0 | 12.9 | 0.00 | 0.13 | 0.13 | 87 | 1010.8 |
| 20260506194424 | 19 | 263 | 4.8 | 14.5 | 0.00 | 0.13 | 0.13 | 86 | 1011.3 |
| 20260506194105 | 19 | 262 | 4.8 | 11.3 | 0.00 | 0.00 | 0.00 | 88 | 1015.6 |
| 20260506193920 | 19 | 266 | 8.0 | 16.1 | 0.00 | 0.13 | 0.13 | 87 | 1011.3 |
| 20260506193418 | 19 | 251 | 4.8 | 9.7 | 0.00 | 0.13 | 0.13 | 88 | 1011.4 |
| 20260506193039 | 19 | 251 | 3.2 | 11.3 | 0.00 | 0.00 | 0.00 | 88 | 1015.7 |
| 20260506192914 | 19 | 250 | 3.2 | 12.9 | 0.00 | 0.13 | 0.13 | 88 | 1011.6 |
| 20260506192411 | 19 | 270 | 3.2 | 11.3 | 0.00 | 0.13 | 0.13 | 88 | 1011.4 |
| 20260506192057 | 19 | 247 | 6.4 | 22.5 | 0.00 | 0.00 | 0.00 | 87 | 1015.7 |
| 20260506191908 | 19 | 244 | 3.2 | 11.3 | 0.00 | 0.13 | 0.13 | 87 | 1011.5 |
| 20260506191404 | 19 | 268 | 3.2 | 12.9 | 0.00 | 0.13 | 0.13 | 87 | 1011.8 |
| 20260506191047 | 19 | 258 | 6.4 | 11.3 | 0.00 | 0.00 | 0.00 | 88 | 1016.0 |
| 20260506190902 | 19 | 237 | 3.2 | 11.3 | 0.00 | 0.13 | 0.13 | 88 | 1012.0 |
| 20260506190358 | 19 | 230 | 8.0 | 14.5 | 0.00 | 0.13 | 0.13 | 88 | 1011.8 |
| 20260506190055 | 19 | 225 | 3.2 | 6.4 | 0.00 | 0.00 | 0.00 | 89 | 1016.1 |
| 20260506185855 | 19 | 245 | 4.8 | 4.8 | 0.00 | 0.13 | 0.13 | 89 | 1011.9 |
| 20260506185351 | 19 | 258 | 8.0 | 9.7 | 0.00 | 0.13 | 0.13 | 88 | 1011.5 |
| 20260506185041 | 19 | 274 | 4.8 | 11.3 | 0.00 | 0.00 | 0.00 | 88 | 1016.0 |
| 20260506184843 | 19 | 267 | 9.7 | 14.5 | 0.00 | 0.13 | 0.13 | 87 | 1011.9 |
| 20260506184340 | 19 | 258 | 3.2 | 4.8 | 0.00 | 0.13 | 0.13 | 88 | 1011.8 |
| 20260506184029 | 18 | 266 | 4.8 | 12.9 | 0.00 | 0.00 | 0.00 | 88 | 1016.1 |
| 20260506183837 | 18 | 269 | 8.0 | 12.9 | 0.00 | 0.13 | 0.13 | 88 | 1011.8 |
| 20260506183332 | 18 | 284 | 6.4 | 12.9 | 0.00 | 0.13 | 0.13 | 89 | 1012.0 |
| 20260506183016 | 18 | 275 | 4.8 | 9.7 | 0.00 | 0.00 | 0.00 | 89 | 1016.1 |
| 20260506182830 | 18 | 35 | 1.6 | 6.4 | 0.00 | 0.13 | 0.13 | 89 | 1011.8 |
| 20260506182326 | 18 | 252 | 1.6 | 4.8 | 0.00 | 0.13 | 0.13 | 89 | 1012.2 |
| 20260506182047 | 18 | 264 | 4.8 | 9.7 | 0.00 | 0.00 | 0.00 | 89 | 1016.6 |
| 20260506181824 | 18 | 285 | 6.4 | 9.7 | 0.00 | 0.13 | 0.13 | 88 | 1012.3 |
| 20260506181322 | 19 | 267 | 3.2 | 4.8 | 0.00 | 0.13 | 0.13 | 88 | 1012.5 |
| 20260506181035 | 19 | 247 | 4.8 | 12.9 | 0.00 | 0.00 | 0.00 | 88 | 1016.4 |
| 20260506180819 | 19 | 237 | 6.4 | 16.1 | 0.00 | 0.13 | 0.13 | 87 | 1012.3 |
| 20260506180315 | 18 | 242 | 3.2 | 6.4 | 0.00 | 0.13 | 0.13 | 88 | 1012.2 |
| 20260506180026 | 18 | 272 | 3.2 | 4.8 | 0.00 | 0.00 | 0.00 | 89 | 1016.6 |
| 20260506175811 | 18 | 244 | 3.2 | 4.8 | 0.00 | 0.13 | 0.13 | 89 | 1012.4 |
| 20260506175308 | 18 | 146 | 1.6 | 9.7 | 0.00 | 0.13 | 0.13 | 90 | 1012.5 |
| 20260506175055 | 18 | 280 | 4.8 | 11.3 | 0.00 | 0.00 | 0.00 | 90 | 1016.5 |
| 20260506174806 | 18 | 334 | 4.8 | 9.7 | 0.00 | 0.13 | 0.13 | 90 | 1012.2 |
| 20260506174303 | 18 | 240 | 3.2 | 6.4 | 0.00 | 0.13 | 0.13 | 91 | 1012.4 |
| 20260506174044 | 18 | 255 | 4.8 | 17.7 | 0.00 | 0.00 | 0.00 | 90 | 1016.6 |
| 20260506173800 | 18 | 209 | 3.2 | 16.1 | 0.00 | 0.13 | 0.13 | 90 | 1012.3 |
| 20260506173257 | 18 | 195 | 3.2 | 22.5 | 0.00 | 0.13 | 0.13 | 90 | 1012.5 |
| 20260506173033 | 18 | 271 | 4.8 | 12.9 | 0.00 | 0.00 | 0.00 | 90 | 1016.5 |
| 20260506172754 | 18 | 238 | 1.6 | 4.8 | 0.00 | 0.13 | 0.13 | 91 | 1012.4 |
| 20260506172250 | 18 | 288 | 6.4 | 9.7 | 0.00 | 0.13 | 0.13 | 91 | 1012.5 |
| 20260506172022 | 18 | 270 | 3.2 | 12.9 | 0.00 | 0.00 | 0.00 | 91 | 1016.6 |
| 20260506171748 | 18 | 210 | 3.2 | 6.4 | 0.00 | 0.13 | 0.13 | 91 | 1012.3 |
| 20260506171245 | 18 | 297 | 6.4 | 11.3 | 0.00 | 0.13 | 0.13 | 90 | 1012.6 |
| 20260506171051 | 17 | 251 | 4.8 | 12.9 | 0.00 | 0.00 | 0.00 | 91 | 1016.7 |
| 20260506170743 | 17 | 260 | 6.4 | 9.7 | 0.00 | 0.13 | 0.13 | 91 | 1012.6 |
| 20260506170239 | 17 | 199 | 3.2 | 11.3 | 0.00 | 0.13 | 0.13 | 92 | 1012.4 |
| 20260506165738 | 17 | 252 | 17.7 | 24.1 | 0.00 | 0.13 | 0.13 | 91 | 1012.5 |
| 20260506165234 | 17 | 266 | 4.8 | 9.7 | 0.00 | 0.13 | 0.13 | 93 | 1012.7 |
| 20260506165030 | 17 | 270 | 3.2 | 9.7 | 0.00 | 0.00 | 0.00 | 93 | 1016.7 |
| 20260506164731 | 17 | 300 | 9.7 | 12.9 | 0.00 | 0.13 | 0.13 | 93 | 1012.7 |
| 20260506164228 | 17 | 234 | 3.2 | 9.7 | 0.00 | 0.13 | 0.13 | 95 | 1012.8 |
| 20260506164021 | 17 | 266 | 4.8 | 12.9 | 0.00 | 0.00 | 0.00 | 96 | 1017.3 |
| 20260506163725 | 17 | 253 | 3.2 | 12.9 | 0.00 | 0.13 | 0.13 | 97 | 1013.1 |
| 20260506163220 | 16 | 222 | 4.8 | 9.7 | 0.00 | 0.13 | 0.13 | 97 | 1013.2 |
| 20260506163051 | 16 | 280 | 3.2 | 6.4 | 0.00 | 0.00 | 0.00 | 97 | 1017.1 |
| 20260506162716 | 16 | 250 | 3.2 | 4.8 | 0.00 | 0.13 | 0.13 | 98 | 1012.9 |
| 20260506162214 | 16 | 248 | 3.2 | 3.2 | 0.00 | 0.13 | 0.13 | 97 | 1013.0 |
| 20260506162042 | 16 | 247 | 1.6 | 3.2 | 0.00 | 0.00 | 0.00 | 97 | 1017.2 |
| 20260506161711 | 16 | 268 | 3.2 | 4.8 | 0.00 | 0.13 | 0.13 | 97 | 1013.2 |
| 20260506161208 | 16 | 222 | 3.2 | 4.8 | 0.00 | 0.13 | 0.13 | 97 | 1013.0 |
| 20260506161114 | 16 | 278 | 4.8 | 9.7 | 0.00 | 0.00 | 0.00 | 97 | 1017.3 |
| 20260506160706 | 16 | 205 | 1.6 | 6.4 | 0.18 | 0.13 | 0.13 | 97 | 1013.0 |
| 20260506160202 | 16 | 264 | 6.4 | 11.3 | 0.18 | 0.13 | 0.13 | 97 | 1012.9 |
| 20260506160021 | 16 | 278 | 3.2 | 11.3 | 0.00 | 0.00 | 0.00 | 97 | 1017.3 |
| 20260506155701 | 16 | 278 | 1.6 | 11.3 | 0.00 | 0.10 | 0.10 | 97 | 1013.2 |
| 20260506155158 | 16 | 60 | 3.2 | 14.5 | 0.30 | 0.10 | 0.10 | 97 | 1013.4 |
| 20260506155114 | 16 | 272 | 1.6 | 4.8 | 0.00 | 0.00 | 0.00 | 98 | 1017.2 |
| 20260506154104 | 16 | 261 | 3.2 | 12.9 | 0.00 | 0.00 | 0.00 | 97 | 1017.4 |
| 20260506153300 | 16 | 286 | 1.6 | 3.2 | 0.18 | 0.08 | 0.08 | 97 | 1013.1 |
| 20260506153035 | 16 | 256 | 3.2 | 4.8 | 0.00 | 0.00 | 0.00 | 97 | 1017.4 |
| 20260506152757 | 16 | 252 | 4.8 | 6.4 | 0.18 | 0.08 | 0.08 | 97 | 1013.3 |
| 20260506152254 | 16 | 298 | 1.6 | 11.3 | 0.00 | 0.05 | 0.05 | 97 | 1013.2 |
| 20260506152026 | 16 | 277 | 4.8 | 9.7 | 0.00 | 0.00 | 0.00 | 96 | 1017.7 |
| 20260506151753 | 16 | 256 | 4.8 | 9.7 | 0.00 | 0.05 | 0.05 | 96 | 1013.5 |
| 20260506151249 | 16 | 259 | 1.6 | 12.9 | 0.18 | 0.05 | 0.05 | 95 | 1013.4 |
| 20260506151017 | 16 | 283 | 3.2 | 6.4 | 0.00 | 0.00 | 0.00 | 94 | 1017.9 |
| 20260506150746 | 16 | 219 | 3.2 | 3.2 | 0.18 | 0.05 | 0.05 | 95 | 1013.7 |
| 20260506150243 | 17 | 231 | 1.6 | 4.8 | 0.00 | 0.03 | 0.03 | 94 | 1013.8 |
| 20260506150052 | 17 | 265 | 3.2 | 9.7 | 0.00 | 0.00 | 0.00 | 93 | 1017.9 |
| 20260506145740 | 17 | 220 | 3.2 | 4.8 | 0.00 | 0.03 | 0.03 | 93 | 1013.7 |
| 20260506145236 | 17 | 276 | 1.6 | 3.2 | 0.00 | 0.03 | 0.03 | 93 | 1013.7 |
| 20260506145044 | 17 | 267 | 3.2 | 4.8 | 0.00 | 0.00 | 0.00 | 93 | 1017.9 |
| 20260506144734 | 17 | 244 | 1.6 | 4.8 | 0.00 | 0.03 | 0.03 | 92 | 1013.7 |
| 20260506144231 | 17 | 269 | 0.0 | 0.0 | 0.00 | 0.03 | 0.03 | 94 | 1013.7 |
| 20260506143728 | 16 | 288 | 0.0 | 11.3 | 0.00 | 0.03 | 0.03 | 94 | 1013.7 |
| 20260506143226 | 16 | 283 | 1.6 | 4.8 | 0.00 | 0.03 | 0.03 | 94 | 1013.5 |
| 20260506143055 | 16 | 275 | 0.0 | 3.2 | 0.00 | 0.00 | 0.00 | 95 | 1017.8 |
| 20260506142724 | 16 | 290 | 3.2 | 3.2 | 0.00 | 0.03 | 0.03 | 95 | 1013.6 |
| 20260506142222 | 16 | 312 | 0.0 | 1.6 | 0.00 | 0.03 | 0.03 | 95 | 1013.6 |
| 20260506142027 | 16 | 284 | 1.6 | 4.8 | 0.00 | 0.00 | 0.00 | 95 | 1017.8 |
| 20260506141720 | 16 | 294 | 3.2 | 4.8 | 0.00 | 0.03 | 0.03 | 94 | 1013.7 |
| 20260506141218 | 16 | 260 | 0.0 | 0.0 | 0.00 | 0.03 | 0.03 | 94 | 1013.6 |
| 20260506141022 | 16 | 223 | 0.0 | 3.2 | 0.00 | 0.00 | 0.00 | 93 | 1017.8 |
| 20260506140715 | 16 | 269 | 0.0 | 3.2 | 0.13 | 0.03 | 0.03 | 93 | 1013.6 |
| 20260506140212 | 16 | 270 | 4.8 | 6.4 | 0.13 | 0.03 | 0.03 | 91 | 1013.6 |
| 20260506135708 | 17 | 237 | 3.2 | 3.2 | 0.00 | 0.00 | 0.00 | 90 | 1013.8 |
| 20260506135205 | 17 | 300 | 0.0 | 6.4 | 0.00 | 0.00 | 0.00 | 90 | 1013.9 |
| 20260506135112 | 17 | 260 | 1.6 | 3.2 | 0.00 | 0.00 | 0.00 | 89 | 1018.0 |
| 20260506134702 | 17 | 294 | 0.0 | 3.2 | 0.00 | 0.00 | 0.00 | 88 | 1014.0 |
| 20260506134157 | 17 | 300 | 6.4 | 6.4 | 0.00 | 0.00 | 0.00 | 86 | 1013.8 |
| 20260506134044 | 17 | 306 | 3.2 | 6.4 | 0.00 | 0.00 | 0.00 | 86 | 1018.0 |
| 20260506133654 | 17 | 276 | 1.6 | 4.8 | 0.00 | 0.00 | 0.00 | 86 | 1014.0 |
| 20260506133151 | 17 | 269 | 3.2 | 6.4 | 0.00 | 0.00 | 0.00 | 84 | 1013.8 |
| 20260506133041 | 17 | 256 | 4.8 | 9.7 | 0.00 | 0.00 | 0.00 | 83 | 1018.0 |
| 20260506132649 | 17 | 273 | 3.2 | 9.7 | 0.00 | 0.00 | 0.00 | 82 | 1014.0 |
| 20260506132146 | 18 | 274 | 12.9 | 14.5 | 0.00 | 0.00 | 0.00 | 79 | 1013.8 |
| 20260506132035 | 18 | 270 | 3.2 | 11.3 | 0.00 | 0.00 | 0.00 | 78 | 1018.0 |
| 20260506131644 | 18 | 267 | 1.6 | 9.7 | 0.00 | 0.00 | 0.00 | 78 | 1013.8 |
| 20260506131139 | 18 | 278 | 9.7 | 11.3 | 0.00 | 0.00 | 0.00 | 77 | 1013.8 |
| 20260506131029 | 18 | 274 | 3.2 | 12.9 | 0.00 | 0.00 | 0.00 | 77 | 1018.0 |
| 20260506130636 | 18 | 223 | 3.2 | 12.9 | 0.00 | 0.00 | 0.00 | 77 | 1013.8 |
| 20260506130134 | 18 | 91 | 9.7 | 11.3 | 0.00 | 0.00 | 0.00 | 77 | 1013.7 |
| 20260506130022 | 18 | 254 | 3.2 | 9.7 | 0.00 | 0.00 | 0.00 | 77 | 1017.6 |
| 20260506125632 | 18 | 235 | 1.6 | 4.8 | 0.00 | 0.00 | 0.00 | 77 | 1013.4 |
| 20260506125129 | 18 | 249 | 1.6 | 11.3 | 0.00 | 0.00 | 0.00 | 76 | 1013.4 |
| 20260506125038 | 18 | 300 | 3.2 | 9.7 | 0.00 | 0.00 | 0.00 | 76 | 1017.5 |
| 20260506124627 | 18 | 217 | 0.0 | 4.8 | 0.00 | 0.00 | 0.00 | 77 | 1013.3 |
| 20260506124125 | 18 | 80 | 3.2 | 11.3 | 0.00 | 0.00 | 0.00 | 77 | 1013.4 |
| 20260506124053 | 18 | 290 | 3.2 | 9.7 | 0.00 | 0.00 | 0.00 | 77 | 1017.6 |
| 20260506123622 | 18 | 278 | 4.8 | 4.8 | 0.00 | 0.00 | 0.00 | 77 | 1013.3 |
| 20260506123121 | 18 | 271 | 3.2 | 4.8 | 0.00 | 0.00 | 0.00 | 77 | 1013.2 |
| 20260506123048 | 18 | 288 | 4.8 | 9.7 | 0.00 | 0.00 | 0.00 | 77 | 1017.5 |
| 20260506122617 | 18 | 5 | 3.2 | 6.4 | 0.00 | 0.00 | 0.00 | 77 | 1013.4 |
| 20260506122115 | 18 | 269 | 6.4 | 11.3 | 0.00 | 0.00 | 0.00 | 77 | 1013.5 |
| 20260506122044 | 18 | 240 | 3.2 | 9.7 | 0.00 | 0.00 | 0.00 | 77 | 1017.8 |
| 20260506121612 | 18 | 263 | 3.2 | 4.8 | 0.00 | 0.00 | 0.00 | 77 | 1013.7 |
| 20260506121109 | 18 | 348 | 1.6 | 9.7 | 0.00 | 0.00 | 0.00 | 78 | 1013.6 |
| 20260506121040 | 18 | 285 | 3.2 | 9.7 | 0.00 | 0.00 | 0.00 | 77 | 1017.8 |
| 20260506120607 | 18 | 246 | 0.0 | 9.7 | 0.00 | 0.00 | 0.00 | 77 | 1013.6 |
| 20260506120103 | 18 | 325 | 0.0 | 6.4 | 0.00 | 0.00 | 0.00 | 77 | 1013.8 |
| 20260506120038 | 18 | 240 | 4.8 | 9.7 | 0.00 | 0.00 | 0.00 | 77 | 1017.8 |
| 20260506115602 | 18 | 187 | 1.6 | 3.2 | 0.00 | 0.00 | 0.00 | 77 | 1013.6 |
| 20260506115100 | 18 | 269 | 0.0 | 12.9 | 0.00 | 0.00 | 0.00 | 78 | 1013.6 |
| 20260506115032 | 18 | 264 | 4.8 | 12.9 | 0.00 | 0.00 | 0.00 | 77 | 1017.8 |
| 20260506114556 | 18 | 251 | 3.2 | 6.4 | 0.00 | 0.00 | 0.00 | 77 | 1013.7 |
| 20260506114055 | 18 | 229 | 3.2 | 4.8 | 0.00 | 0.00 | 0.00 | 78 | 1013.7 |
| 20260506114029 | 18 | 262 | 3.2 | 6.4 | 0.00 | 0.00 | 0.00 | 77 | 1017.9 |
| 20260506113552 | 18 | 312 | 4.8 | 6.4 | 0.00 | 0.00 | 0.00 | 77 | 1013.7 |
| 20260506113049 | 18 | 60 | 3.2 | 3.2 | 0.00 | 0.00 | 0.00 | 78 | 1013.7 |
| 20260506113046 | 18 | 252 | 1.6 | 4.8 | 0.00 | 0.00 | 0.00 | 78 | 1017.8 |
| 20260506112546 | 18 | 226 | 1.6 | 3.2 | 0.00 | 0.00 | 0.00 | 77 | 1013.5 |
| 20260506112056 | 18 | 274 | 4.8 | 11.3 | 0.00 | 0.00 | 0.00 | 78 | 1017.7 |
| 20260506112044 | 18 | 175 | 1.6 | 3.2 | 0.00 | 0.00 | 0.00 | 78 | 1013.5 |
| 20260506111541 | 18 | 125 | 3.2 | 4.8 | 0.00 | 0.00 | 0.00 | 78 | 1013.5 |
| 20260506111049 | 18 | 282 | 4.8 | 12.9 | 0.00 | 0.00 | 0.00 | 78 | 1017.7 |
| 20260506111038 | 18 | 311 | 3.2 | 4.8 | 0.00 | 0.00 | 0.00 | 78 | 1013.5 |
| 20260506110536 | 18 | 241 | 3.2 | 6.4 | 0.00 | 0.00 | 0.00 | 78 | 1013.4 |
| 20260506110058 | 17 | 271 | 4.8 | 11.3 | 0.00 | 0.00 | 0.00 | 79 | 1017.7 |
| 20260506110033 | 17 | 267 | 3.2 | 11.3 | 0.00 | 0.00 | 0.00 | 79 | 1013.4 |
| 20260506105529 | 17 | 274 | 4.8 | 6.4 | 0.00 | 0.00 | 0.00 | 79 | 1013.6 |
| 20260506105032 | 17 | 275 | 4.8 | 9.7 | 0.00 | 0.00 | 0.00 | 80 | 1017.7 |
| 20260506105027 | 17 | 269 | 1.6 | 4.8 | 0.00 | 0.00 | 0.00 | 80 | 1013.6 |
| 20260506104524 | 17 | 266 | 3.2 | 6.4 | 0.00 | 0.00 | 0.00 | 80 | 1013.4 |
| 20260506104022 | 17 | 232 | 1.6 | 6.4 | 0.00 | 0.00 | 0.00 | 80 | 1013.5 |
| 20260506103519 | 17 | 249 | 8.0 | 11.3 | 0.00 | 0.00 | 0.00 | 80 | 1013.4 |
| 20260506103051 | 17 | 282 | 3.2 | 9.7 | 0.00 | 0.00 | 0.00 | 80 | 1017.4 |
| 20260506103016 | 17 | 281 | 0.0 | 1.6 | 0.00 | 0.00 | 0.00 | 81 | 1013.2 |
| 20260506102514 | 17 | 276 | 6.4 | 11.3 | 0.00 | 0.00 | 0.00 | 80 | 1013.3 |
| 20260506102039 | 17 | 282 | 3.2 | 6.4 | 0.00 | 0.00 | 0.00 | 81 | 1017.5 |
| 20260506102011 | 17 | 279 | 3.2 | 6.4 | 0.00 | 0.00 | 0.00 | 81 | 1013.4 |
| 20260506101508 | 17 | 260 | 0.0 | 11.3 | 0.00 | 0.00 | 0.00 | 81 | 1013.4 |
| 20260506101029 | 17 | 258 | 4.8 | 16.1 | 0.00 | 0.00 | 0.00 | 81 | 1017.3 |
| 20260506101005 | 17 | 268 | 3.2 | 9.7 | 0.00 | 0.00 | 0.00 | 81 | 1013.2 |
| 20260506100503 | 17 | 223 | 3.2 | 9.7 | 0.00 | 0.00 | 0.00 | 81 | 1013.2 |
| 20260506100022 | 17 | 247 | 3.2 | 9.7 | 0.00 | 0.00 | 0.00 | 82 | 1017.2 |
| 20260506100001 | 17 | 274 | 4.8 | 14.5 | 0.00 | 0.00 | 0.00 | 82 | 1013.1 |
| 20260506095459 | 17 | 265 | 1.6 | 4.8 | 0.00 | 0.00 | 0.00 | 82 | 1013.1 |
| 20260506095048 | 17 | 272 | 3.2 | 11.3 | 0.00 | 0.00 | 0.00 | 82 | 1017.4 |
| 20260506094954 | 17 | 227 | 3.2 | 3.2 | 0.00 | 0.00 | 0.00 | 83 | 1013.2 |
| 20260506094453 | 17 | 213 | 0.0 | 3.2 | 0.00 | 0.00 | 0.00 | 82 | 1013.3 |
| 20260506094058 | 17 | 289 | 4.8 | 6.4 | 0.00 | 0.00 | 0.00 | 82 | 1017.5 |
| 20260506093950 | 17 | 272 | 4.8 | 6.4 | 0.00 | 0.00 | 0.00 | 82 | 1013.1 |
| 20260506093448 | 17 | 239 | 6.4 | 12.9 | 0.00 | 0.00 | 0.00 | 82 | 1013.3 |
| 20260506093025 | 17 | 262 | 3.2 | 6.4 | 0.00 | 0.00 | 0.00 | 82 | 1017.5 |
| 20260506092945 | 17 | 337 | 3.2 | 6.4 | 0.00 | 0.00 | 0.00 | 82 | 1013.4 |
| 20260506092443 | 17 | 300 | 4.8 | 14.5 | 0.00 | 0.00 | 0.00 | 82 | 1013.2 |
| 20260506092054 | 17 | 242 | 1.6 | 1.6 | 0.00 | 0.00 | 0.00 | 82 | 1017.4 |